Time;durP1;ratioP1;P1;durP2;ratioP2;P2;SDS_P1;SDS_P2;PMS_P1;PMS_P2;Temp;Humidity;BMP_temperature;BMP_pressure;BME280_temperature;BME280_humidity;BME280_pressure;Samples;Min_cycle;Max_cycle;Signal;HPM_P1;HPM_P2
2022/11/19 00:01:13;;;;;;;0.95;0.85;;;;;;;2.75;100.00;98972.56;6247751;22;20015;-79
2022/11/19 00:03:40;;;;;;;2.20;1.88;;;;;;;2.71;100.00;98966.34;6220820;22;20064;-79
2022/11/19 00:06:08;;;;;;;0.52;0.52;;;;;;;2.64;100.00;98971.94;6274368;22;20018;-79
2022/11/19 00:08:33;;;;;;;8.00;1.65;;;;;;;2.59;100.00;98980.59;6274178;22;20004;-77
2022/11/19 00:11:04;;;;;;;1.05;1.05;;;;;;;2.58;100.00;98967.31;6246889;22;20031;-77
2022/11/19 00:13:30;;;;;;;1.50;1.27;;;;;;;2.60;100.00;98976.66;6247295;22;20011;-77
2022/11/19 00:16:10;;;;;;;1.38;1.33;;;;;;;2.59;100.00;98980.59;6247744;22;20087;-77
2022/11/19 00:18:35;;;;;;;2.58;2.40;;;;;;;2.59;100.00;98999.75;6247729;22;20447;-77
2022/11/19 00:21:08;;;;;;;1.35;1.27;;;;;;;2.61;100.00;99005.59;6222172;22;20027;-77
2022/11/19 00:23:34;;;;;;;0.53;0.53;;;;;;;2.56;100.00;99011.53;6246952;22;20014;-77
2022/11/19 00:26:08;;;;;;;1.25;1.17;;;;;;;2.56;100.00;99013.47;6274917;22;20569;-77
2022/11/19 00:28:33;;;;;;;2.33;2.15;;;;;;;2.56;100.00;99025.22;6246782;22;20019;-79
2022/11/19 00:31:07;;;;;;;2.38;2.00;;;;;;;2.61;100.00;99032.97;6247602;22;20088;-79
2022/11/19 00:33:33;;;;;;;1.65;1.55;;;;;;;2.63;100.00;99035.31;6273702;22;20450;-80
2022/11/19 00:35:59;;;;;;;1.58;0.93;;;;;;;2.59;100.00;99035.34;6246759;22;20047;-80
2022/11/19 00:38:25;;;;;;;1.70;1.60;;;;;;;2.56;100.00;99047.09;6273897;22;20158;-79
2022/11/19 00:40:51;;;;;;;2.85;1.00;;;;;;;2.52;100.00;99040.91;6274284;22;20039;-79
2022/11/19 00:46:00;;;;;;;0.75;0.75;;;;;;;2.49;100.00;99047.19;6273668;22;20079;-79
2022/11/19 00:48:26;;;;;;;3.17;2.88;;;;;;;2.43;100.00;99043.31;6246381;22;20090;-77
2022/11/19 00:50:51;;;;;;;0.90;0.90;;;;;;;2.44;100.00;99047.63;6272912;22;20066;-77
2022/11/19 00:53:17;;;;;;;0.63;0.63;;;;;;;2.46;100.00;99042.53;6273023;22;20014;-77
2022/11/19 00:55:42;;;;;;;1.17;1.08;;;;;;;2.50;100.00;99032.34;6273760;22;20012;-77
2022/11/19 00:58:08;;;;;;;2.42;1.45;;;;;;;2.46;100.00;99020.63;6246900;22;20007;-77
2022/11/19 01:00:33;;;;;;;1.63;1.13;;;;;;;2.47;100.00;99024.91;6272850;22;20004;-77
2022/11/19 01:02:59;;;;;;;2.33;2.17;;;;;;;2.50;100.00;99037.03;6220859;22;20016;-77
2022/11/19 01:05:24;;;;;;;1.63;1.52;;;;;;;2.41;100.00;99029.28;6221602;22;20018;-79
2022/11/19 01:07:52;;;;;;;0.50;0.50;;;;;;;2.33;100.00;99041.47;6221332;22;20063;-77
2022/11/19 01:10:17;;;;;;;1.73;1.55;;;;;;;2.39;100.00;99064.47;6246807;22;20019;-77
2022/11/19 01:15:27;;;;;;;2.28;2.08;;;;;;;2.37;100.00;99077.81;6273294;22;20091;-77
2022/11/19 01:17:52;;;;;;;0.65;0.65;;;;;;;2.37;100.00;99077.03;6274572;22;20010;-77
2022/11/19 01:20:18;;;;;;;1.63;0.70;;;;;;;2.36;100.00;99081.72;6246759;22;20018;-77
2022/11/19 01:22:45;;;;;;;2.75;2.05;;;;;;;2.48;100.00;99097.63;6246069;22;20004;-77
2022/11/19 01:25:11;;;;;;;2.78;2.58;;;;;;;2.43;100.00;99100.06;6245714;22;20349;-77
2022/11/19 01:27:36;;;;;;;4.32;3.58;;;;;;;2.43;100.00;99106.28;6220983;22;20004;-77
2022/11/19 01:30:03;;;;;;;3.53;3.30;;;;;;;2.41;100.00;99114.13;6246326;22;20007;-77
2022/11/19 01:32:28;;;;;;;1.92;1.60;;;;;;;2.35;100.00;99102.03;6246294;22;20014;-77
2022/11/19 01:34:54;;;;;;;1.25;1.20;;;;;;;2.36;100.00;99109.09;6246652;22;20003;-77
2022/11/19 01:37:19;;;;;;;2.83;1.98;;;;;;;2.37;100.00;99110.66;6219066;22;20035;-78
2022/11/19 01:39:45;;;;;;;1.08;1.08;;;;;;;2.42;100.00;99117.66;6246568;22;20014;-77
2022/11/19 01:42:48;;;;;;;2.65;2.50;;;;;;;2.41;100.00;99116.88;6221370;22;20018;-77
2022/11/19 01:45:05;;;;;;;3.17;2.13;;;;;;;2.43;100.00;99114.50;6225367;22;20031;-77
2022/11/19 01:47:31;;;;;;;2.55;1.75;;;;;;;2.36;100.00;99114.56;6245984;22;20011;-77
2022/11/19 01:49:57;;;;;;;2.00;1.38;;;;;;;2.39;100.00;99091.84;6245893;22;20026;-78
2022/11/19 01:52:22;;;;;;;4.63;3.03;;;;;;;2.45;100.00;99116.84;6273642;22;20007;-77
2022/11/19 01:54:49;;;;;;;3.17;2.88;;;;;;;2.37;100.00;99110.66;6272929;22;20087;-77
2022/11/19 01:57:15;;;;;;;8.55;4.68;;;;;;;2.42;100.00;99118.44;6221548;22;20004;-77
2022/11/19 01:59:42;;;;;;;0.52;0.52;;;;;;;2.41;100.00;99118.81;6195240;22;20031;-77
2022/11/19 02:02:07;;;;;;;3.13;1.40;;;;;;;2.07;100.00;99070.22;6188688;22;20008;-82
2022/11/19 02:04:34;;;;;;;6.22;2.03;;;;;;;2.29;100.00;99104.47;6212045;22;20020;-80
2022/11/19 02:07:00;;;;;;;2.80;2.20;;;;;;;2.36;100.00;99111.81;6191291;23;20009;-80
2022/11/19 02:09:26;;;;;;;3.08;2.50;;;;;;;2.31;100.00;99120.47;6216244;23;20066;-80
2022/11/19 02:12:12;;;;;;;2.08;1.65;;;;;;;2.24;100.00;99110.38;6215489;23;20016;-80
2022/11/19 02:14:49;;;;;;;2.55;2.35;;;;;;;2.23;100.00;99108.00;6216334;23;20012;-80
2022/11/19 02:17:59;;;;;;;1.55;1.45;;;;;;;2.25;100.00;99108.41;6243376;23;20493;-80
2022/11/19 02:20:40;;;;;;;2.25;2.10;;;;;;;2.20;100.00;99117.03;6190562;23;20099;-80
2022/11/19 02:23:26;;;;;;;2.38;1.42;;;;;;;2.22;100.00;99117.44;6243512;23;20008;-80
2022/11/19 02:26:27;;;;;;;3.83;3.63;;;;;;;2.18;100.00;99131.13;6243455;23;20016;-80
2022/11/19 02:29:00;;;;;;;2.20;2.05;;;;;;;2.14;100.00;99124.91;6242725;23;20016;-80
2022/11/19 02:31:30;;;;;;;3.70;3.38;;;;;;;2.10;100.00;99126.13;6242922;23;20474;-80
2022/11/19 02:34:04;;;;;;;0.68;0.68;;;;;;;2.08;100.00;99123.00;6215915;23;20019;-80
2022/11/19 02:36:55;;;;;;;6.82;3.50;;;;;;;2.02;100.00;99121.88;6216921;23;20016;-80
2022/11/19 02:39:29;;;;;;;2.38;2.28;;;;;;;2.05;100.00;99134.75;6216742;23;20048;-80
2022/11/19 02:41:59;;;;;;;2.60;1.42;;;;;;;2.04;100.00;99124.97;6216183;23;20445;-78
2022/11/19 02:45:01;;;;;;;2.33;2.22;;;;;;;1.99;100.00;99123.44;6191269;23;20012;-78
2022/11/19 02:47:35;;;;;;;6.97;1.95;;;;;;;2.01;100.00;99131.25;6243333;23;20016;-78
2022/11/19 02:50:10;;;;;;;3.53;1.88;;;;;;;2.01;100.00;99131.25;6242731;23;20016;-78
2022/11/19 02:52:36;;;;;;;4.53;4.22;;;;;;;2.01;100.00;99129.31;6216059;23;20008;-78
2022/11/19 02:55:02;;;;;;;1.35;1.33;;;;;;;1.98;100.00;99126.59;6216288;23;20055;-78
2022/11/19 02:57:28;;;;;;;0.70;0.70;;;;;;;1.98;100.00;99132.84;6215787;23;20381;-78
2022/11/19 03:05:32;;;;;;;1.90;1.80;;;;;;;2.00;100.00;99135.94;6220027;23;20091;-78
2022/11/19 03:07:58;;;;;;;2.67;2.53;;;;;;;1.92;100.00;99137.16;6242995;23;20346;-78
2022/11/19 03:10:27;;;;;;;2.63;2.50;;;;;;;2.02;100.00;99160.16;6217731;23;20012;-78
2022/11/19 03:12:57;;;;;;;2.20;2.00;;;;;;;2.00;100.00;99163.28;6216684;23;20024;-78
2022/11/19 03:18:18;;;;;;;1.75;0.82;;;;;;;1.95;100.00;99176.59;6245221;23;20008;-80
2022/11/19 03:20:52;;;;;;;2.08;1.30;;;;;;;1.97;100.00;99163.31;6217970;23;20531;-80
2022/11/19 03:23:39;;;;;;;3.67;1.63;;;;;;;1.99;100.00;99166.41;6218041;23;20100;-80
2022/11/19 03:26:31;;;;;;;2.78;1.98;;;;;;;1.97;100.00;99182.47;6217762;23;20515;-80
2022/11/19 03:29:00;;;;;;;3.85;3.22;;;;;;;1.88;100.00;99183.69;6236700;23;20016;-80
2022/11/19 03:31:27;;;;;;;1.35;1.25;;;;;;;1.88;100.00;99200.09;6218061;23;20076;-80
2022/11/19 03:33:56;;;;;;;2.08;1.98;;;;;;;1.80;100.00;99198.56;6217201;23;20482;-79
2022/11/19 03:36:48;;;;;;;1.08;1.08;;;;;;;1.82;100.00;99215.34;6217957;23;20101;-80
2022/11/19 03:39:16;;;;;;;1.70;1.60;;;;;;;1.79;100.00;99213.41;6210583;23;20027;-79
2022/11/19 03:41:43;;;;;;;0.88;0.88;;;;;;;1.79;100.00;99216.16;6217796;23;20012;-79
2022/11/19 03:44:31;;;;;;;2.15;2.05;;;;;;;1.76;100.00;99224.38;6217592;23;20015;-79
2022/11/19 03:46:59;;;;;;;2.50;2.30;;;;;;;1.78;100.00;99214.59;6217537;23;20497;-80
2022/11/19 03:49:30;;;;;;;0.80;0.77;;;;;;;1.71;100.00;99228.28;6218250;23;20446;-80
2022/11/19 03:52:05;;;;;;;3.65;3.13;;;;;;;1.71;100.00;99217.34;6217244;23;20008;-79
2022/11/19 03:54:30;;;;;;;1.63;1.55;;;;;;;1.72;100.00;99224.38;6192635;23;20016;-78
2022/11/19 03:56:57;;;;;;;2.25;2.00;;;;;;;1.74;100.00;99227.50;6244475;23;20011;-80
2022/11/19 03:59:23;;;;;;;2.15;2.03;;;;;;;1.67;100.00;99243.94;6218070;23;20012;-80
2022/11/19 04:01:50;;;;;;;2.05;1.90;;;;;;;1.62;100.00;99230.66;6243746;23;20444;-79
2022/11/19 04:06:59;;;;;;;1.40;1.30;;;;;;;1.71;100.00;99254.84;6244415;23;20008;-79
2022/11/19 04:09:25;;;;;;;0.57;0.57;;;;;;;1.67;100.00;99249.41;6244686;23;20017;-79
2022/11/19 04:11:50;;;;;;;0.17;0.17;;;;;;;1.63;100.00;99259.56;6243724;23;20445;-79
2022/11/19 04:14:16;;;;;;;1.75;1.65;;;;;;;1.63;100.00;99269.72;6244158;23;20008;-78
2022/11/19 04:16:41;;;;;;;0.82;0.82;;;;;;;1.56;100.00;99265.06;6244465;23;20083;-80
2022/11/19 04:19:06;;;;;;;1.35;1.33;;;;;;;1.59;100.00;99280.66;6244162;23;20040;-79
2022/11/19 04:21:32;;;;;;;2.20;2.10;;;;;;;1.59;100.00;99286.13;6244193;23;20012;-80
2022/11/19 04:23:57;;;;;;;2.88;2.38;;;;;;;1.66;100.00;99288.84;6243348;23;20011;-79
2022/11/19 04:26:23;;;;;;;0.73;0.73;;;;;;;1.65;100.00;99292.00;6217216;23;20027;-80
2022/11/19 04:28:48;;;;;;;1.67;1.58;;;;;;;1.59;100.00;99293.56;6217342;23;20422;-80
2022/11/19 04:31:13;;;;;;;0.30;0.30;;;;;;;1.56;100.00;99297.88;6217323;23;20087;-80
2022/11/19 04:33:39;;;;;;;0.98;0.88;;;;;;;1.55;100.00;99290.84;6243983;23;20008;-80
2022/11/19 04:36:05;;;;;;;1.55;1.45;;;;;;;1.54;100.00;99297.47;6243916;23;20000;-80
2022/11/19 04:38:30;;;;;;;1.45;1.42;;;;;;;1.50;100.00;99307.63;6243853;23;20097;-80
2022/11/19 04:40:56;;;;;;;3.38;2.05;;;;;;;1.53;100.00;99315.06;6243473;23;20375;-80
2022/11/19 04:43:23;;;;;;;0.57;0.57;;;;;;;1.51;100.00;99320.13;6243366;23;20012;-80
2022/11/19 04:45:49;;;;;;;1.85;1.75;;;;;;;1.50;100.00;99313.09;6243518;23;20070;-80
2022/11/19 04:48:14;;;;;;;1.55;1.45;;;;;;;1.56;100.00;99327.94;6243927;23;20437;-80
2022/11/19 04:50:41;;;;;;;7.20;4.55;;;;;;;1.59;100.00;99323.63;6243897;23;20011;-79
2022/11/19 04:53:06;;;;;;;3.40;2.50;;;;;;;1.52;100.00;99318.16;6243552;23;20087;-80
2022/11/19 04:55:31;;;;;;;2.05;1.67;;;;;;;1.50;100.00;99326.75;6243588;23;20039;-78
2022/11/19 04:57:57;;;;;;;1.27;1.25;;;;;;;1.52;100.00;99329.88;6243386;23;20039;-78
2022/11/19 05:00:22;;;;;;;1.02;1.02;;;;;;;1.47;100.00;99332.22;6243220;23;20016;-78
2022/11/19 05:02:48;;;;;;;2.63;2.22;;;;;;;1.46;100.00;99325.22;6242553;23;20407;-78
2022/11/19 05:05:13;;;;;;;2.80;1.85;;;;;;;1.40;100.00;99317.41;6243652;23;20338;-78
2022/11/19 05:07:39;;;;;;;1.45;1.40;;;;;;;1.37;100.00;99301.03;6244114;23;20426;-78
2022/11/19 05:10:05;;;;;;;2.05;1.92;;;;;;;1.39;100.00;99315.06;6243844;23;20014;-79
2022/11/19 05:12:30;;;;;;;1.30;1.13;;;;;;;1.36;100.00;99318.59;6242956;23;20074;-78
2022/11/19 05:14:55;;;;;;;2.95;2.28;;;;;;;1.30;100.00;99318.19;6243382;23;20096;-78
2022/11/19 05:17:21;;;;;;;3.15;1.85;;;;;;;1.28;100.00;99320.56;6243631;23;20012;-78
2022/11/19 05:19:46;;;;;;;2.38;2.20;;;;;;;1.27;100.00;99326.41;6244002;23;20004;-78
2022/11/19 05:22:12;;;;;;;3.08;2.65;;;;;;;1.23;100.00;99317.44;6243127;23;20008;-78
2022/11/19 05:24:37;;;;;;;6.10;5.07;;;;;;;1.10;100.00;99332.66;6243821;23;20011;-78
2022/11/19 05:27:03;;;;;;;1.35;1.27;;;;;;;1.09;100.00;99355.69;6243707;23;20386;-78
2022/11/19 05:29:29;;;;;;;2.72;1.95;;;;;;;1.08;100.00;99351.38;6216993;23;20351;-78
2022/11/19 05:31:54;;;;;;;4.50;3.17;;;;;;;1.03;100.00;99355.28;6215860;23;20007;-79
2022/11/19 05:34:20;;;;;;;2.67;2.53;;;;;;;0.99;100.00;99361.91;6243689;23;20134;-79
2022/11/19 05:36:45;;;;;;;2.33;1.25;;;;;;;0.99;100.00;99383.75;6244026;23;20062;-80
2022/11/19 05:39:11;;;;;;;4.72;2.78;;;;;;;0.94;100.00;99393.91;6242874;23;20446;-80
2022/11/19 05:41:36;;;;;;;2.00;1.90;;;;;;;1.00;100.00;99396.25;6242776;23;20082;-80
2022/11/19 05:44:02;;;;;;;2.28;2.03;;;;;;;0.96;100.00;99390.78;6243450;23;20004;-80
2022/11/19 05:46:27;;;;;;;2.33;2.22;;;;;;;1.05;100.00;99404.84;6243742;23;20083;-80
2022/11/19 05:48:53;;;;;;;7.28;1.80;;;;;;;1.11;100.00;99416.16;6243453;23;20422;-79
2022/11/19 05:51:18;;;;;;;1.50;1.42;;;;;;;1.15;100.00;99425.13;6215582;23;20030;-80
2022/11/19 05:53:44;;;;;;;1.02;0.95;;;;;;;1.10;100.00;99434.50;6243468;23;20342;-80
2022/11/19 05:56:09;;;;;;;1.92;1.83;;;;;;;1.16;100.00;99432.16;6243402;23;20031;-80
2022/11/19 05:58:35;;;;;;;0.63;0.63;;;;;;;1.06;100.00;99435.66;6216542;23;20043;-80
2022/11/19 06:01:00;;;;;;;0.70;0.70;;;;;;;1.08;100.00;99430.59;6242732;23;20019;-80
2022/11/19 06:03:26;;;;;;;2.17;2.08;;;;;;;1.00;100.00;99424.34;6216065;23;20342;-80
2022/11/19 06:05:51;;;;;;;2.33;2.13;;;;;;;1.02;100.00;99432.13;6242813;23;20092;-80
2022/11/19 06:08:17;;;;;;;2.83;2.63;;;;;;;1.04;100.00;99454.38;6216189;23;20004;-80
2022/11/19 06:10:43;;;;;;;1.73;1.60;;;;;;;1.10;100.00;99444.63;6216555;23;20012;-79
2022/11/19 06:13:08;;;;;;;1.70;1.60;;;;;;;1.05;100.00;99448.56;6216041;23;20019;-79
2022/11/19 06:15:34;;;;;;;5.45;2.47;;;;;;;0.96;100.00;99444.63;6243347;23;20564;-78
2022/11/19 06:17:59;;;;;;;1.48;1.38;;;;;;;0.97;100.00;99451.66;6215990;23;20442;-79
2022/11/19 06:20:25;;;;;;;3.38;3.08;;;;;;;0.98;100.00;99447.72;6243278;23;20377;-78
2022/11/19 06:22:50;;;;;;;1.17;1.17;;;;;;;0.96;100.00;99455.53;6242883;23;20040;-78
2022/11/19 06:25:16;;;;;;;1.70;1.55;;;;;;;0.93;100.00;99457.88;6242756;23;20015;-80
2022/11/19 06:27:42;;;;;;;2.00;1.90;;;;;;;0.90;100.00;99453.19;6243272;23;20070;-80
2022/11/19 06:30:08;;;;;;;1.20;1.05;;;;;;;0.97;100.00;99462.56;6243419;23;20398;-78
2022/11/19 06:32:34;;;;;;;1.63;1.52;;;;;;;0.93;100.00;99463.31;6215598;23;20010;-78
2022/11/19 06:34:59;;;;;;;2.08;1.98;;;;;;;0.93;100.00;99466.06;6243144;23;20075;-80
2022/11/19 06:37:24;;;;;;;5.38;4.43;;;;;;;0.96;100.00;99477.38;6243468;23;20004;-78
2022/11/19 06:39:50;;;;;;;2.17;2.00;;;;;;;0.89;100.00;99478.91;6243052;23;20043;-78
2022/11/19 06:44:59;;;;;;;3.72;2.47;;;;;;;0.92;100.00;99494.56;6245179;23;20043;-78
2022/11/19 06:47:25;;;;;;;2.63;2.47;;;;;;;0.88;100.00;99493.75;6244949;23;20000;-78
2022/11/19 06:49:50;;;;;;;2.60;2.40;;;;;;;0.86;100.00;99492.56;6244230;23;20008;-80
2022/11/19 06:52:16;;;;;;;2.85;1.10;;;;;;;0.97;100.00;99503.53;6217013;23;20673;-80
2022/11/19 06:54:41;;;;;;;3.10;2.20;;;;;;;0.90;100.00;99524.19;6245046;23;20398;-80
2022/11/19 06:57:06;;;;;;;2.60;1.98;;;;;;;0.92;100.00;99516.41;6244367;23;20071;-80
2022/11/19 06:59:33;;;;;;;1.15;1.08;;;;;;;0.88;100.00;99521.06;6243525;23;20091;-80
2022/11/19 07:01:59;;;;;;;1.60;1.50;;;;;;;0.85;100.00;99513.63;6244052;23;20431;-80
2022/11/19 07:04:24;;;;;;;3.70;3.08;;;;;;;0.90;100.00;99501.53;6217144;23;20030;-80
2022/11/19 07:06:50;;;;;;;0.90;0.90;;;;;;;0.94;100.00;99513.25;6216708;23;20082;-80
2022/11/19 07:09:16;;;;;;;2.80;0.95;;;;;;;0.94;100.00;99503.13;6217790;23;20012;-80
2022/11/19 07:11:42;;;;;;;0.55;0.55;;;;;;;0.97;100.00;99498.06;6244562;23;20083;-80
2022/11/19 07:14:07;;;;;;;0.43;0.43;;;;;;;0.86;100.00;99501.53;6244123;23;20442;-80
2022/11/19 07:16:34;;;;;;;1.27;1.20;;;;;;;0.96;100.00;99521.09;6191980;23;20022;-80
2022/11/19 07:19:02;;;;;;;3.00;2.75;;;;;;;0.93;100.00;99539.78;6244029;23;20039;-78
2022/11/19 07:21:29;;;;;;;1.92;1.83;;;;;;;0.92;100.00;99532.00;6244623;23;20462;-79
2022/11/19 07:23:55;;;;;;;1.55;1.45;;;;;;;0.98;100.00;99552.28;6243137;23;20381;-80
2022/11/19 07:26:21;;;;;;;0.73;0.73;;;;;;;1.01;100.00;99556.22;6242895;23;20012;-79
2022/11/19 07:28:47;;;;;;;4.00;3.38;;;;;;;0.99;100.00;99556.59;6217427;23;20077;-81
2022/11/19 07:31:12;;;;;;;1.00;1.00;;;;;;;1.01;100.00;99558.94;6244205;23;20007;-79
2022/11/19 07:33:38;;;;;;;0.32;0.32;;;;;;;0.97;100.00;99553.47;6243748;23;20015;-81
2022/11/19 07:36:08;;;;;;;2.53;1.80;;;;;;;1.01;100.00;99556.22;6243276;23;20087;-80
2022/11/19 07:38:35;;;;;;;0.77;0.77;;;;;;;1.03;100.00;99557.38;6243490;23;20016;-80
2022/11/19 07:41:01;;;;;;;1.83;1.70;;;;;;;0.99;100.00;99559.31;6214506;23;20477;-85
2022/11/19 07:43:26;;;;;;;4.60;2.70;;;;;;;0.92;100.00;99546.44;6215033;23;20008;-80
2022/11/19 07:45:52;;;;;;;2.78;2.58;;;;;;;1.07;100.00;99557.41;6216898;23;20004;-80
2022/11/19 07:48:17;;;;;;;3.05;2.75;;;;;;;1.13;100.00;99561.34;6243023;23;20016;-80
2022/11/19 07:50:49;;;;;;;5.68;1.73;;;;;;;1.12;100.00;99557.81;6215996;23;20022;-80
2022/11/19 07:53:14;;;;;;;0.90;0.52;;;;;;;1.20;100.00;99555.88;6239243;23;20422;-80
2022/11/19 07:55:40;;;;;;;3.30;2.33;;;;;;;1.13;100.00;99559.38;6243487;23;20012;-80
2022/11/19 07:58:05;;;;;;;5.82;3.30;;;;;;;1.13;100.00;99575.00;6243399;23;20422;-80
2022/11/19 08:00:31;;;;;;;3.17;2.08;;;;;;;1.16;100.00;99574.22;6238418;23;20587;-80
2022/11/19 08:02:56;;;;;;;1.10;0.82;;;;;;;1.20;100.00;99569.56;6213317;23;20032;-80
2022/11/19 08:05:22;;;;;;;2.08;1.45;;;;;;;1.20;100.00;99564.09;6214924;23;20047;-79
2022/11/19 08:07:47;;;;;;;1.58;1.48;;;;;;;1.22;100.00;99572.66;6214394;23;20039;-79
2022/11/19 08:10:13;;;;;;;1.45;1.35;;;;;;;1.25;100.00;99561.00;6241239;23;20062;-78
2022/11/19 08:12:38;;;;;;;3.28;3.08;;;;;;;1.24;100.00;99576.59;6191165;23;20069;-79
2022/11/19 08:15:04;;;;;;;1.85;1.75;;;;;;;1.28;100.00;99587.53;6215025;23;20011;-79
2022/11/19 08:20:16;;;;;;;1.95;1.80;;;;;;;1.24;100.00;99570.34;6242795;23;20385;-79
2022/11/19 08:22:42;;;;;;;1.20;1.10;;;;;;;1.35;100.00;99582.06;6244362;23;20393;-80
2022/11/19 08:25:07;;;;;;;4.00;2.85;;;;;;;1.47;100.00;99579.00;6243402;23;19996;-80
2022/11/19 08:27:33;;;;;;;1.58;1.48;;;;;;;1.52;100.00;99577.84;6244081;23;20019;-80
2022/11/19 08:29:59;;;;;;;1.15;1.13;;;;;;;1.50;100.00;99575.47;6243696;23;20062;-80
2022/11/19 08:32:24;;;;;;;1.77;1.60;;;;;;;1.50;100.00;99589.13;6244285;23;20020;-80
2022/11/19 08:34:49;;;;;;;3.45;3.17;;;;;;;1.40;100.00;99568.03;6243956;23;20027;-80
2022/11/19 08:37:15;;;;;;;2.25;2.15;;;;;;;1.38;100.00;99575.84;6243918;23;20016;-80
2022/11/19 08:39:40;;;;;;;3.17;2.08;;;;;;;1.44;100.00;99579.78;6243044;23;20000;-80
2022/11/19 08:44:53;;;;;;;1.38;1.33;;;;;;;1.59;100.00;99578.63;6243622;23;20008;-79
2022/11/19 08:47:19;;;;;;;2.13;1.67;;;;;;;1.63;100.00;99571.22;6243148;23;20291;-79
2022/11/19 08:49:44;;;;;;;2.65;2.28;;;;;;;1.67;100.00;99577.47;6243811;23;20008;-79
2022/11/19 08:52:10;;;;;;;1.08;0.98;;;;;;;1.66;100.00;99570.44;6216913;23;20057;-79
2022/11/19 08:54:35;;;;;;;8.38;5.78;;;;;;;1.76;100.00;99583.34;6243769;23;20061;-79
2022/11/19 08:57:00;;;;;;;3.40;3.10;;;;;;;1.83;100.00;99591.56;6242626;23;20513;-79
2022/11/19 08:59:26;;;;;;;4.00;2.90;;;;;;;1.83;100.00;99580.63;6243119;23;20449;-79
2022/11/19 09:01:51;;;;;;;2.92;2.72;;;;;;;1.91;100.00;99586.09;6243433;23;20086;-79
2022/11/19 09:04:17;;;;;;;4.90;2.92;;;;;;;2.00;100.00;99583.75;6242588;23;20044;-79
2022/11/19 09:06:42;;;;;;;1.00;1.00;;;;;;;1.98;100.00;99597.06;6243636;23;20342;-79
2022/11/19 09:09:08;;;;;;;1.88;1.33;;;;;;;1.92;100.00;99593.13;6242991;23;20012;-79
2022/11/19 09:11:35;;;;;;;2.90;2.65;;;;;;;1.91;100.00;99586.88;6244178;23;20012;-79
2022/11/19 09:14:00;;;;;;;3.17;2.92;;;;;;;1.98;100.00;99597.06;6243489;23;20083;-79
2022/11/19 09:16:26;;;;;;;0.22;0.22;;;;;;;2.06;100.00;99609.56;6243316;23;20031;-79
2022/11/19 09:18:52;;;;;;;4.15;2.75;;;;;;;2.07;100.00;99595.47;6243360;23;20012;-78
2022/11/19 09:21:17;;;;;;;3.95;2.30;;;;;;;2.15;100.00;99588.03;6243418;23;20449;-80
2022/11/19 09:23:42;;;;;;;0.93;0.93;;;;;;;2.15;100.00;99601.72;6242923;23;20074;-80
2022/11/19 09:26:11;;;;;;;2.88;2.63;;;;;;;2.18;100.00;99609.97;6243290;23;20418;-80
2022/11/19 09:28:37;;;;;;;5.00;2.03;;;;;;;2.21;100.00;99605.66;6243597;23;20070;-80
2022/11/19 09:31:22;;;;;;;1.98;1.88;;;;;;;2.15;100.00;99599.00;6243337;23;20004;-80
2022/11/19 09:33:50;;;;;;;2.55;2.40;;;;;;;2.17;100.00;99594.72;6216416;23;20074;-80
2022/11/19 09:36:17;;;;;;;5.07;4.43;;;;;;;2.25;100.00;99590.00;6242389;23;20019;-80
2022/11/19 09:38:42;;;;;;;1.58;1.50;;;;;;;2.24;100.00;99593.91;6242218;23;20012;-80
2022/11/19 09:41:45;;;;;;;3.13;2.83;;;;;;;2.35;100.00;99600.16;6243364;23;20026;-79
2022/11/19 09:44:31;;;;;;;5.90;3.47;;;;;;;2.44;100.00;99591.56;6243272;23;20051;-79
2022/11/19 09:47:11;;;;;;;5.07;2.65;;;;;;;2.53;100.00;99598.19;6216994;23;20046;-79
2022/11/19 09:49:53;;;;;;;3.25;2.63;;;;;;;2.46;100.00;99606.44;6243376;23;20012;-79
2022/11/19 09:52:20;;;;;;;0.80;0.80;;;;;;;2.36;100.00;99601.72;6214817;23;20487;-79
2022/11/19 09:54:49;;;;;;;4.65;2.70;;;;;;;2.43;100.00;99612.66;6216201;23;20023;-79
2022/11/19 09:57:25;;;;;;;3.80;3.50;;;;;;;2.51;100.00;99608.75;6216515;23;20024;-79
2022/11/19 09:59:54;;;;;;;3.25;2.55;;;;;;;2.43;100.00;99612.66;6216955;23;20070;-79
2022/11/19 10:02:21;;;;;;;2.67;2.33;;;;;;;2.48;100.00;99615.00;6216169;23;20450;-79
2022/11/19 10:04:48;;;;;;;4.40;2.40;;;;;;;2.41;100.00;99615.03;6215490;23;20012;-79
2022/11/19 10:07:33;;;;;;;4.43;1.98;;;;;;;2.43;100.00;99612.66;6216096;23;20027;-79
2022/11/19 10:10:23;;;;;;;4.65;4.25;;;;;;;2.37;100.00;99614.25;6243416;23;20043;-79
2022/11/19 10:13:11;;;;;;;2.35;2.08;;;;;;;2.42;100.00;99610.34;6216761;23;20023;-79
2022/11/19 10:16:05;;;;;;;1.88;1.77;;;;;;;2.50;100.00;99607.19;6243250;23;20016;-79
2022/11/19 10:19:02;;;;;;;2.70;1.92;;;;;;;2.49;100.00;99613.84;6245414;23;20377;-79
2022/11/19 10:21:33;;;;;;;3.22;2.80;;;;;;;2.47;100.00;99613.44;6218888;23;20382;-79
2022/11/19 10:24:16;;;;;;;1.33;1.15;;;;;;;2.50;100.00;99620.88;6244973;23;20040;-79
2022/11/19 10:26:45;;;;;;;6.38;5.75;;;;;;;2.56;100.00;99622.03;6218746;23;20091;-79
2022/11/19 10:29:16;;;;;;;2.72;2.53;;;;;;;2.61;100.00;99621.66;6245153;23;20500;-79
2022/11/19 10:31:49;;;;;;;2.30;2.17;;;;;;;2.67;100.00;99614.59;6218578;23;20062;-79
2022/11/19 10:34:27;;;;;;;1.98;1.80;;;;;;;2.75;100.00;99632.56;6245165;23;20346;-80
2022/11/19 10:36:56;;;;;;;2.88;2.63;;;;;;;2.80;100.00;99610.25;6218254;23;20008;-79
2022/11/19 10:39:35;;;;;;;2.67;2.30;;;;;;;2.85;100.00;99619.25;6218107;23;20453;-79
2022/11/19 10:42:16;;;;;;;0.40;0.40;;;;;;;2.89;100.00;99611.81;6218488;23;20016;-79
2022/11/19 10:44:48;;;;;;;3.78;2.60;;;;;;;2.87;100.00;99625.13;6218679;23;20012;-79
2022/11/19 10:47:21;;;;;;;1.67;1.58;;;;;;;2.80;100.00;99626.69;6218327;23;20023;-79
2022/11/19 10:49:51;;;;;;;3.07;2.77;;;;;;;2.78;100.00;99629.06;6218274;23;20270;-79
2022/11/19 10:52:23;;;;;;;1.00;1.00;;;;;;;2.80;100.00;99620.44;6244262;23;20019;-79
2022/11/19 10:54:50;;;;;;;3.47;2.28;;;;;;;2.82;100.00;99612.63;6218292;23;20346;-80
2022/11/19 10:57:17;;;;;;;1.15;1.13;;;;;;;2.80;100.00;99604.78;6218115;23;20016;-79
2022/11/19 10:59:43;;;;;;;3.28;2.97;;;;;;;2.78;100.00;99598.94;6217480;23;20360;-80
2022/11/19 11:02:20;;;;;;;6.03;3.13;;;;;;;2.73;100.00;99591.13;6217727;23;20008;-80
2022/11/19 11:05:18;;;;;;;6.57;3.92;;;;;;;2.68;100.00;99601.69;6217898;23;20013;-80
2022/11/19 11:07:52;;;;;;;2.08;1.95;;;;;;;2.77;100.00;99597.38;6161431;23;20094;-80
2022/11/19 11:10:33;;;;;;;1.00;0.95;;;;;;;2.80;100.00;99593.84;6217963;23;20020;-80
2022/11/19 11:15:58;;;;;;;2.08;1.98;;;;;;;2.94;100.00;99581.28;6244965;23;20012;-80
2022/11/19 11:18:28;;;;;;;2.35;2.15;;;;;;;2.87;100.00;99564.88;6218021;23;20012;-80
2022/11/19 11:20:55;;;;;;;2.72;2.47;;;;;;;2.96;100.00;99579.69;6218244;23;20016;-80
2022/11/19 11:23:23;;;;;;;3.95;3.60;;;;;;;2.94;100.00;99575.78;6217504;23;20107;-80
2022/11/19 11:26:09;;;;;;;1.35;1.35;;;;;;;2.90;100.00;99558.59;6217725;23;20032;-80
2022/11/19 11:28:35;;;;;;;4.40;2.67;;;;;;;2.85;100.00;99550.78;6217711;23;20009;-80
2022/11/19 11:31:03;;;;;;;2.45;1.55;;;;;;;2.89;100.00;99551.53;6218002;23;20058;-80
2022/11/19 11:33:33;;;;;;;3.40;3.20;;;;;;;2.96;100.00;99557.00;6218080;23;20016;-80
2022/11/19 11:36:02;;;;;;;12.90;3.90;;;;;;;2.98;100.00;99569.13;6218135;23;20016;-80
2022/11/19 11:38:28;;;;;;;1.38;1.27;;;;;;;2.92;100.00;99561.69;6217058;23;20074;-80
2022/11/19 11:41:00;;;;;;;1.67;1.58;;;;;;;2.97;100.00;99539.38;6244308;23;20012;-80
2022/11/19 11:43:26;;;;;;;2.60;2.40;;;;;;;3.10;100.00;99551.47;6244416;23;20067;-80
2022/11/19 11:46:00;;;;;;;2.80;2.60;;;;;;;3.14;100.00;99557.72;6243858;23;20465;-80
2022/11/19 11:48:25;;;;;;;;;;;;;;;3.09;100.00;99547.16;6218035;23;20019;-80
2022/11/19 11:50:51;;;;;;;2.60;2.40;;;;;;;3.13;100.00;99545.97;6217454;23;19946;-80
2022/11/19 11:53:27;;;;;;;1.40;1.38;;;;;;;3.22;100.00;99553.75;6243731;23;20341;-79
2022/11/19 11:56:01;;;;;;;1.45;1.35;;;;;;;3.26;100.00;99557.25;6217438;23;20016;-79
2022/11/19 11:58:30;;;;;;;;;;;;;;;3.28;100.00;99554.88;6244809;23;20034;-79
2022/11/19 12:01:14;;;;;;;4.85;3.90;;;;;;;3.36;100.00;99547.44;6243784;23;19912;-79
2022/11/19 12:03:56;;;;;;;3.63;2.20;;;;;;;3.46;100.00;99547.34;6191857;23;20032;-79
2022/11/19 12:06:33;;;;;;;1.70;1.60;;;;;;;3.46;100.00;99544.63;6216816;23;20490;-79
2022/11/19 12:09:06;;;;;;;2.50;2.38;;;;;;;3.43;100.00;99531.72;6191993;23;20024;-79
2022/11/19 12:11:54;;;;;;;4.18;3.88;;;;;;;3.51;100.00;99532.44;6244421;23;20012;-79